Latest Coastal Weather Observations for Hogan Island

IDV60701

Issued at 5:35 pm EDT Wednesday 22 October 2014 (issued every 10 minutes, with the page automatically refreshed every 10 minutes)

About coastal observations | Map of coastal stations | Coastal observations for VIC | Marine services | Other Formats
Station Details ID: 200838 Name: HOGAN ISLAND Lat: -39.22 Lon: 146.98 Height: 116.0 m
Data from the previous 72 hours. | See also: Recent months at Hogan Island
Date/Time
EDT
Temp

°C
Wind Pressure Rain
since 9am
mm
Weather Cloud Vis
km
Sea
Height
m
Swell
Dir
 
Speed
knots
Gust
knots
hPa Trend Height
m
Period
s
Dir
22/05:30pm 16.7 NE 9 11 1015.6 - 0.0 - - - - - - -
22/05:00pm 17.7 NE 9 11 1015.8 - 0.0 - - - - - - -
22/04:30pm 17.3 NE 9 11 1016.1 - 0.0 - - - - - - -
22/04:00pm 18.2 NE 9 11 1016.7 - 0.0 - - - - - - -
22/03:30pm 18.2 NE 9 11 1016.7 - 0.0 - - - - - - -
22/03:00pm 18.3 NE 7 8 1017.1 - 0.0 - - - - - - -
22/02:30pm 18.2 NE 8 10 1017.5 - 0.0 - - - - - - -
22/02:00pm 18.5 NE 8 10 1017.6 - 0.0 - - - - - - -
22/01:30pm 18.5 NE 9 11 1018.0 - 0.0 - - - - - - -
22/01:00pm 18.5 NE 10 13 1018.2 - 0.0 - - - - - - -
22/12:30pm 18.6 NNE 12 16 1018.5 - 0.0 - - - - - - -
22/12:00pm 18.5 NNE 12 14 1019.2 - 0.0 - - - - - - -
22/11:30am 17.8 NE 11 15 1019.5 - 0.0 - - - - - - -
22/11:00am 17.7 NNE 12 19 1019.9 - 0.0 - - - - - - -
22/10:30am 18.4 N 10 14 1020.2 - 0.0 - - - - - - -
22/10:00am 16.9 NNE 9 12 1020.2 - 0.0 - - - - - - -
22/09:30am 16.6 NE 8 11 1020.1 - 0.0 - - - - - - -
22/09:00am 15.2 NNE 10 13 1020.1 - 0.0 - - - - - - -
22/08:30am 14.5 NE 11 13 1020.1 - 0.0 - - - - - - -
22/08:00am 13.5 NE 12 14 1020.3 - 0.0 - - - - - - -
22/07:30am 13.5 NE 12 14 1020.3 - 0.0 - - - - - - -
22/07:00am 13.1 NE 12 14 1020.4 - 0.0 - - - - - - -
22/06:30am 12.5 ENE 14 15 1020.3 - 0.0 - - - - - - -
22/06:00am 12.4 ENE 14 15 1020.3 - 0.0 - - - - - - -
22/05:30am 12.4 ENE 14 15 1020.4 - 0.0 - - - - - - -
22/05:00am 12.4 ENE 15 16 1020.5 - 0.0 - - - - - - -
22/04:30am 12.2 ENE 15 16 1020.8 - 0.0 - - - - - - -
22/04:00am 12.3 ENE 15 16 1021.2 - 0.0 - - - - - - -
22/03:30am 12.4 ENE 16 17 1021.6 - 0.0 - - - - - - -
22/03:00am 12.5 ENE 17 19 1022.0 - 0.0 - - - - - - -
22/02:30am 12.6 ENE 18 21 1022.5 - 0.0 - - - - - - -
22/02:00am 12.6 ENE 19 22 1022.9 - 0.0 - - - - - - -
22/01:30am 12.6 ENE 21 23 1023.4 - 0.0 - - - - - - -
22/01:00am 12.7 ENE 21 25 1024.0 - 0.0 - - - - - - -
22/12:30am 12.6 ENE 21 25 1024.6 - 0.0 - - - - - - -
22/12:00am 12.8 ENE 22 26 1025.0 - 0.0 - - - - - - -
 
Date/Time
EDT
Temp

°C
Wind Pressure Rain
since 9am
mm
Weather Cloud Vis
km
Sea
Height
m
Swell
Dir
 
Speed
knots
Gust
knots
hPa Trend Height
m
Period
s
Dir
21/11:30pm 12.7 ENE 24 27 1025.1 - 0.0 - - - - - - -
21/11:00pm 12.7 ENE 24 27 1025.6 - 0.0 - - - - - - -
21/10:30pm 12.8 ENE 25 29 1025.7 - 0.0 - - - - - - -
21/10:00pm 12.9 ENE 28 32 1025.8 - 0.0 - - - - - - -
21/09:30pm 12.8 ENE 24 28 1026.2 - 0.0 - - - - - - -
21/09:00pm 12.8 ENE 24 27 1026.3 - 0.0 - - - - - - -
21/08:30pm 12.7 ENE 24 27 1026.4 - 0.0 - - - - - - -
21/08:00pm 12.8 ENE 26 31 1026.3 - 0.0 - - - - - - -
21/07:30pm 12.9 E 26 30 1026.2 - 0.0 - - - - - - -
21/07:00pm 13.1 E 26 31 1026.2 - 0.0 - - - - - - -
21/06:30pm 13.5 E 25 29 1026.3 - 0.0 - - - - - - -
21/06:00pm 13.9 E 26 32 1026.6 - 0.0 - - - - - - -
21/05:30pm 14.3 E 25 29 1026.7 - 0.0 - - - - - - -
21/05:00pm 14.9 E 24 30 1027.2 - 0.0 - - - - - - -
21/04:30pm 15.0 E 26 31 1027.1 - 0.0 - - - - - - -
21/04:00pm 15.4 ENE 26 30 1027.5 - 0.0 - - - - - - -
21/03:30pm 16.0 E 25 30 1027.7 - 0.0 - - - - - - -
21/03:00pm 15.8 E 25 30 1028.0 - 0.0 - - - - - - -
21/02:30pm 16.4 ENE 26 29 1028.5 - 0.0 - - - - - - -
21/02:00pm 16.9 ENE 25 29 1029.2 - 0.0 - - - - - - -
21/01:30pm 16.5 ENE 23 27 1029.5 - 0.0 - - - - - - -
21/01:00pm 17.1 ENE 24 27 1029.6 - 0.0 - - - - - - -
21/12:30pm 16.7 ENE 24 28 1029.8 - 0.0 - - - - - - -
21/12:00pm 16.8 ENE 25 29 1029.9 - 0.0 - - - - - - -
21/11:30am 16.3 ENE 29 33 1029.7 - 0.0 - - - - - - -
21/11:00am 16.3 ENE 28 32 1030.2 - 0.0 - - - - - - -
21/10:30am 16.0 ENE 27 31 1030.6 - 0.0 - - - - - - -
21/10:00am 15.9 ENE 26 30 1030.8 - 0.0 - - - - - - -
21/09:30am 15.2 ENE 27 31 1030.7 - 0.0 - - - - - - -
21/09:00am 14.9 ENE 29 34 1030.5 - 0.0 - - - - - - -
21/08:30am 14.4 ENE 28 32 1030.3 - 0.0 - - - - - - -
21/08:00am 13.9 ENE 28 31 1030.1 - 0.0 - - - - - - -
21/07:30am 13.3 ENE 29 35 1029.8 - 0.0 - - - - - - -
21/07:00am 12.7 ENE 30 35 1029.5 - 0.0 - - - - - - -
21/06:30am 12.5 ENE 27 30 1029.8 - 0.0 - - - - - - -
21/06:00am 12.4 E 28 34 1029.3 - 0.0 - - - - - - -
21/05:30am 12.0 E 29 35 1029.2 - 0.0 - - - - - - -
21/05:00am 11.8 E 26 35 1029.3 - 0.0 - - - - - - -
21/04:30am 11.8 E 27 32 1029.5 - 0.0 - - - - - - -
21/04:00am 11.9 E 27 32 1029.7 - 0.0 - - - - - - -
21/03:30am 11.8 E 27 32 1030.0 - 0.0 - - - - - - -
21/03:00am 11.8 ENE 30 35 1030.2 - 0.0 - - - - - - -
21/02:30am 11.9 E 28 33 1030.4 - 0.0 - - - - - - -
21/02:00am 11.8 E 27 32 1030.8 - 0.0 - - - - - - -
21/01:30am 11.7 E 26 32 1031.3 - 0.0 - - - - - - -
21/01:00am 11.5 E 27 33 1031.5 - 0.0 - - - - - - -
21/12:30am 11.5 E 27 34 1031.8 - 0.0 - - - - - - -
21/12:00am 11.5 E 28 34 1032.0 - 0.0 - - - - - - -
 
Date/Time
EDT
Temp

°C
Wind Pressure Rain
since 9am
mm
Weather Cloud Vis
km
Sea
Height
m
Swell
Dir
 
Speed
knots
Gust
knots
hPa Trend Height
m
Period
s
Dir
20/11:30pm 11.4 E 28 33 1032.2 - 0.0 - - - - - - -
20/11:00pm 11.3 E 28 33 1032.2 - 0.0 - - - - - - -
20/10:30pm 11.4 E 29 34 1032.3 - 0.0 - - - - - - -
20/10:00pm 11.3 E 27 34 1032.2 - 0.0 - - - - - - -
20/09:30pm 11.4 E 29 34 1032.1 - 0.0 - - - - - - -
20/09:00pm 11.3 E 27 32 1032.0 - 0.0 - - - - - - -
20/08:30pm 11.3 E 28 32 1031.8 - 0.0 - - - - - - -
20/08:00pm 11.3 E 27 32 1031.6 - 0.0 - - - - - - -
20/07:30pm 11.1 E 25 31 1031.7 - 0.0 - - - - - - -
20/07:00pm 11.4 E 26 31 1031.5 - 0.0 - - - - - - -
20/06:30pm 11.7 E 26 31 1031.4 - 0.0 - - - - - - -
20/06:00pm 12.1 E 26 30 1031.4 - 0.0 - - - - - - -
20/05:30pm 12.5 E 24 29 1031.4 - 0.0 - - - - - - -
20/05:00pm 13.0 E 24 28 1031.4 - 0.0 - - - - - - -
20/04:30pm 13.3 E 24 29 1031.3 - 0.0 - - - - - - -
20/04:00pm 13.8 E 24 27 1031.4 - 0.0 - - - - - - -
20/03:30pm 13.8 E 24 28 1031.6 - 0.0 - - - - - - -
20/03:00pm 14.2 E 24 27 1031.8 - 0.0 - - - - - - -
20/02:30pm 14.0 E 24 28 1031.9 - 0.0 - - - - - - -
20/02:00pm 14.2 E 23 26 1032.1 - 0.0 - - - - - - -
20/01:30pm 14.3 E 23 26 1032.2 - 0.0 - - - - - - -
20/01:00pm 14.2 E 23 26 1032.2 - 0.0 - - - - - - -
20/12:30pm 14.3 E 23 27 1032.3 - 0.0 - - - - - - -
20/12:00pm 14.1 E 22 26 1032.5 - 0.0 - - - - - - -
20/11:30am 13.6 E 22 25 1032.6 - 0.0 - - - - - - -
20/11:00am 13.4 E 22 25 1032.9 - 0.0 - - - - - - -
20/10:30am 13.0 ESE 22 25 1032.8 - 0.0 - - - - - - -
20/10:00am 12.6 ESE 22 26 1032.7 - 0.0 - - - - - - -
20/09:30am 12.3 ESE 22 25 1032.3 - 0.0 - - - - - - -
20/09:00am 12.6 E 22 26 1031.9 - 0.0 - - - - - - -
20/08:30am 11.4 ESE 15 18 1031.7 - 0.0 - - - - - - -
20/08:00am 11.8 SE 15 18 1031.6 - 0.0 - - - - - - -
20/07:30am 11.0 SE 15 18 1031.2 - 0.0 - - - - - - -
20/07:00am 10.0 SE 17 21 1030.5 - 0.0 - - - - - - -
20/06:30am 9.6 SE 19 22 1030.2 - 0.0 - - - - - - -
20/06:00am 9.9 SE 17 21 1030.0 - 0.0 - - - - - - -
20/05:30am 9.5 SSE 14 17 1029.6 - 0.0 - - - - - - -
20/05:00am 9.6 SSE 14 18 1029.2 - 0.0 - - - - - - -
20/04:30am 9.5 S 15 19 1029.0 - 0.0 - - - - - - -
20/04:00am 9.6 SSW 14 19 1029.0 - 0.0 - - - - - - -
20/03:30am 9.8 SW 19 26 1028.9 - 0.0 - - - - - - -
20/03:10am 10.2 SSW 17 27 1028.5 - 0.0 - - - - - - -
20/03:00am 10.1 SW 17 25 1028.6 - 0.0 - - - - - - -
20/02:30am 10.3 SW 23 26 1028.5 - 0.0 - - - - - - -
20/02:00am 10.3 SW 23 26 1028.1 - 0.0 - - - - - - -
20/01:30am 10.5 SW 25 29 1027.8 - 0.0 - - - - - - -
20/01:00am 10.4 SW 29 33 1027.6 - 0.0 - - - - - - -
20/12:30am 10.5 SW 30 34 1027.1 - 0.0 - - - - - - -
20/12:00am 10.6 SW 31 36 1026.6 - 0.0 - - - - - - -
 
Date/Time
EDT
Temp

°C
Wind Pressure Rain
since 9am
mm
Weather Cloud Vis
km
Sea
Height
m
Swell
Dir
 
Speed
knots
Gust
knots
hPa Trend Height
m
Period
s
Dir
19/11:30pm 10.8 SW 33 37 1026.1 - 0.0 - - - - - - -
19/11:00pm 11.2 SW 35 41 1026.1 - 0.0 - - - - - - -
19/10:41pm 11.3 SW 28 38 1025.7 - 0.0 - - - - - - -
19/10:30pm 11.4 SW 28 35 1025.7 - 0.0 - - - - - - -
19/10:00pm 11.8 SW 30 36 1025.5 - 0.0 - - - - - - -
19/09:30pm 11.9 SW 26 32 1024.7 - 0.0 - - - - - - -
19/09:00pm 12.2 WSW 24 29 1023.9 - 0.0 - - - - - - -
19/08:30pm 12.4 SW 31 37 1023.1 - 0.0 - - - - - - -
19/08:00pm 12.6 WSW 27 35 1022.0 - 0.0 - - - - - - -
19/07:30pm 12.8 WSW 29 35 1021.1 - 0.0 - - - - - - -
19/07:00pm 13.3 WSW 29 34 1020.5 - 0.0 - - - - - - -
19/06:30pm 13.5 WSW 29 33 1019.9 - 0.0 - - - - - - -
19/06:00pm 13.9 WSW 25 28 1019.9 - 0.0 - - - - - - -

Other Formats:

Comma delimited format used in spreadsheet applications
http://www.bom.gov.au/fwo/IDV60701/IDV60701.94949.axf

JavaScript Object Notation format (JSON) in row-major order
http://www.bom.gov.au/fwo/IDV60701/IDV60701.94949.json